sensor_id;sensor_type;location;lat;lon;timestamp;P1;durP1;ratioP1;P2;durP2;ratioP2
53401;SDS011;39295;45.534;20.034;2023-04-03T00:01:06;16.40;;;9.52;;
53401;SDS011;39295;45.534;20.034;2023-04-03T00:03:33;13.50;;;8.80;;
53401;SDS011;39295;45.534;20.034;2023-04-03T00:05:59;12.52;;;8.50;;
53401;SDS011;39295;45.534;20.034;2023-04-03T00:08:26;10.73;;;8.35;;
53401;SDS011;39295;45.534;20.034;2023-04-03T00:10:52;9.85;;;8.27;;
53401;SDS011;39295;45.534;20.034;2023-04-03T00:13:18;11.98;;;9.05;;
53401;SDS011;39295;45.534;20.034;2023-04-03T00:15:44;13.63;;;8.45;;
53401;SDS011;39295;45.534;20.034;2023-04-03T00:18:10;13.40;;;8.23;;
53401;SDS011;39295;45.534;20.034;2023-04-03T00:20:36;11.73;;;8.10;;
53401;SDS011;39295;45.534;20.034;2023-04-03T00:23:02;13.65;;;8.68;;
53401;SDS011;39295;45.534;20.034;2023-04-03T00:25:29;11.80;;;7.50;;
53401;SDS011;39295;45.534;20.034;2023-04-03T00:27:55;11.23;;;8.05;;
53401;SDS011;39295;45.534;20.034;2023-04-03T00:30:21;10.68;;;7.80;;
53401;SDS011;39295;45.534;20.034;2023-04-03T00:32:47;12.15;;;8.57;;
53401;SDS011;39295;45.534;20.034;2023-04-03T00:35:14;10.63;;;8.02;;
53401;SDS011;39295;45.534;20.034;2023-04-03T00:37:43;12.90;;;8.10;;
53401;SDS011;39295;45.534;20.034;2023-04-03T00:40:10;11.73;;;8.48;;
53401;SDS011;39295;45.534;20.034;2023-04-03T00:42:36;12.30;;;8.32;;
53401;SDS011;39295;45.534;20.034;2023-04-03T00:47:29;10.25;;;7.82;;
53401;SDS011;39295;45.534;20.034;2023-04-03T00:49:56;12.35;;;8.50;;
53401;SDS011;39295;45.534;20.034;2023-04-03T00:52:23;10.90;;;8.57;;
53401;SDS011;39295;45.534;20.034;2023-04-03T00:54:51;10.00;;;8.32;;
53401;SDS011;39295;45.534;20.034;2023-04-03T00:57:19;12.13;;;8.73;;
53401;SDS011;39295;45.534;20.034;2023-04-03T00:59:48;12.48;;;9.07;;
53401;SDS011;39295;45.534;20.034;2023-04-03T01:02:16;11.95;;;9.30;;
53401;SDS011;39295;45.534;20.034;2023-04-03T01:07:29;11.93;;;9.25;;
53401;SDS011;39295;45.534;20.034;2023-04-03T01:09:56;12.65;;;9.27;;
53401;SDS011;39295;45.534;20.034;2023-04-03T01:12:25;16.05;;;9.60;;
53401;SDS011;39295;45.534;20.034;2023-04-03T01:14:55;12.35;;;9.57;;
53401;SDS011;39295;45.534;20.034;2023-04-03T01:25:25;15.73;;;10.13;;
53401;SDS011;39295;45.534;20.034;2023-04-03T01:27:51;13.45;;;9.73;;
53401;SDS011;39295;45.534;20.034;2023-04-03T01:30:18;12.88;;;10.18;;
53401;SDS011;39295;45.534;20.034;2023-04-03T01:32:45;13.07;;;10.13;;
53401;SDS011;39295;45.534;20.034;2023-04-03T01:40:40;13.13;;;10.05;;
53401;SDS011;39295;45.534;20.034;2023-04-03T01:43:06;11.73;;;9.77;;
53401;SDS011;39295;45.534;20.034;2023-04-03T01:45:32;16.02;;;10.63;;
53401;SDS011;39295;45.534;20.034;2023-04-03T01:47:58;15.25;;;10.50;;
53401;SDS011;39295;45.534;20.034;2023-04-03T01:56:30;14.07;;;10.35;;
53401;SDS011;39295;45.534;20.034;2023-04-03T01:58:56;15.10;;;10.70;;
53401;SDS011;39295;45.534;20.034;2023-04-03T02:01:22;11.85;;;9.90;;
53401;SDS011;39295;45.534;20.034;2023-04-03T02:06:54;13.85;;;10.80;;
53401;SDS011;39295;45.534;20.034;2023-04-03T02:09:20;23.73;;;13.65;;
53401;SDS011;39295;45.534;20.034;2023-04-03T02:11:46;13.48;;;10.48;;
53401;SDS011;39295;45.534;20.034;2023-04-03T02:14:12;14.75;;;9.93;;
53401;SDS011;39295;45.534;20.034;2023-04-03T02:16:38;16.67;;;11.32;;
53401;SDS011;39295;45.534;20.034;2023-04-03T02:21:52;13.52;;;9.77;;
53401;SDS011;39295;45.534;20.034;2023-04-03T02:24:18;13.38;;;9.75;;
53401;SDS011;39295;45.534;20.034;2023-04-03T02:26:44;15.98;;;11.07;;
53401;SDS011;39295;45.534;20.034;2023-04-03T02:29:10;16.88;;;11.05;;
53401;SDS011;39295;45.534;20.034;2023-04-03T02:31:36;13.40;;;10.00;;
53401;SDS011;39295;45.534;20.034;2023-04-03T02:34:03;15.43;;;11.40;;
53401;SDS011;39295;45.534;20.034;2023-04-03T02:36:29;13.32;;;10.38;;
53401;SDS011;39295;45.534;20.034;2023-04-03T02:38:55;14.07;;;10.18;;
53401;SDS011;39295;45.534;20.034;2023-04-03T02:41:21;12.80;;;10.13;;
53401;SDS011;39295;45.534;20.034;2023-04-03T02:43:47;13.25;;;10.50;;
53401;SDS011;39295;45.534;20.034;2023-04-03T02:46:13;13.82;;;10.73;;
53401;SDS011;39295;45.534;20.034;2023-04-03T02:48:40;13.65;;;9.68;;
53401;SDS011;39295;45.534;20.034;2023-04-03T02:51:06;14.13;;;9.85;;
53401;SDS011;39295;45.534;20.034;2023-04-03T02:53:32;13.63;;;9.65;;
53401;SDS011;39295;45.534;20.034;2023-04-03T02:55:58;12.52;;;9.05;;
53401;SDS011;39295;45.534;20.034;2023-04-03T02:58:24;11.85;;;9.10;;
53401;SDS011;39295;45.534;20.034;2023-04-03T03:00:50;12.70;;;8.00;;
53401;SDS011;39295;45.534;20.034;2023-04-03T03:03:16;14.85;;;8.73;;
53401;SDS011;39295;45.534;20.034;2023-04-03T03:05:42;10.93;;;8.05;;
53401;SDS011;39295;45.534;20.034;2023-04-03T03:08:09;12.82;;;8.25;;
53401;SDS011;39295;45.534;20.034;2023-04-03T03:10:35;13.57;;;8.43;;
53401;SDS011;39295;45.534;20.034;2023-04-03T03:13:01;8.20;;;6.85;;
53401;SDS011;39295;45.534;20.034;2023-04-03T03:15:27;6.68;;;5.00;;
53401;SDS011;39295;45.534;20.034;2023-04-03T03:17:53;5.35;;;4.10;;
53401;SDS011;39295;45.534;20.034;2023-04-03T03:26:08;4.63;;;3.50;;
53401;SDS011;39295;45.534;20.034;2023-04-03T03:28:35;6.03;;;3.92;;
53401;SDS011;39295;45.534;20.034;2023-04-03T03:31:01;5.43;;;3.35;;
53401;SDS011;39295;45.534;20.034;2023-04-03T03:33:28;5.13;;;4.13;;
53401;SDS011;39295;45.534;20.034;2023-04-03T03:38:58;5.72;;;4.00;;
53401;SDS011;39295;45.534;20.034;2023-04-03T03:41:24;4.43;;;3.97;;
53401;SDS011;39295;45.534;20.034;2023-04-03T03:43:50;5.78;;;3.20;;
53401;SDS011;39295;45.534;20.034;2023-04-03T03:46:16;5.75;;;4.25;;
53401;SDS011;39295;45.534;20.034;2023-04-03T03:48:42;4.05;;;3.40;;
53401;SDS011;39295;45.534;20.034;2023-04-03T03:51:08;5.30;;;3.40;;
53401;SDS011;39295;45.534;20.034;2023-04-03T03:53:34;5.97;;;3.70;;
53401;SDS011;39295;45.534;20.034;2023-04-03T03:56:00;3.78;;;2.95;;
53401;SDS011;39295;45.534;20.034;2023-04-03T03:58:26;4.50;;;3.38;;
53401;SDS011;39295;45.534;20.034;2023-04-03T04:00:52;5.05;;;3.20;;
53401;SDS011;39295;45.534;20.034;2023-04-03T04:03:18;3.67;;;2.80;;
53401;SDS011;39295;45.534;20.034;2023-04-03T04:09:08;5.50;;;2.83;;
53401;SDS011;39295;45.534;20.034;2023-04-03T04:11:34;3.95;;;3.08;;
53401;SDS011;39295;45.534;20.034;2023-04-03T04:14:00;3.72;;;3.20;;
53401;SDS011;39295;45.534;20.034;2023-04-03T04:16:26;5.88;;;3.20;;
53401;SDS011;39295;45.534;20.034;2023-04-03T04:18:53;4.88;;;3.72;;
53401;SDS011;39295;45.534;20.034;2023-04-03T04:24:22;4.75;;;3.28;;
53401;SDS011;39295;45.534;20.034;2023-04-03T04:26:48;3.50;;;3.08;;
53401;SDS011;39295;45.534;20.034;2023-04-03T04:29:14;3.78;;;2.90;;
53401;SDS011;39295;45.534;20.034;2023-04-03T04:31:40;3.67;;;2.90;;
53401;SDS011;39295;45.534;20.034;2023-04-03T04:34:06;4.25;;;2.80;;
53401;SDS011;39295;45.534;20.034;2023-04-03T04:39:36;3.22;;;2.47;;
53401;SDS011;39295;45.534;20.034;2023-04-03T04:42:02;2.90;;;2.55;;
53401;SDS011;39295;45.534;20.034;2023-04-03T04:44:28;3.28;;;2.05;;
53401;SDS011;39295;45.534;20.034;2023-04-03T04:46:55;5.03;;;2.38;;
53401;SDS011;39295;45.534;20.034;2023-04-03T04:49:21;3.72;;;2.30;;
53401;SDS011;39295;45.534;20.034;2023-04-03T04:52:05;2.97;;;2.25;;
53401;SDS011;39295;45.534;20.034;2023-04-03T04:54:31;3.05;;;1.92;;
53401;SDS011;39295;45.534;20.034;2023-04-03T04:56:58;3.80;;;2.08;;
53401;SDS011;39295;45.534;20.034;2023-04-03T04:59:24;3.45;;;2.28;;
53401;SDS011;39295;45.534;20.034;2023-04-03T05:01:50;4.38;;;2.20;;
53401;SDS011;39295;45.534;20.034;2023-04-03T05:04:16;4.07;;;2.40;;
53401;SDS011;39295;45.534;20.034;2023-04-03T05:09:28;3.83;;;2.60;;
53401;SDS011;39295;45.534;20.034;2023-04-03T05:11:55;2.95;;;2.20;;
53401;SDS011;39295;45.534;20.034;2023-04-03T05:14:21;2.72;;;2.00;;
53401;SDS011;39295;45.534;20.034;2023-04-03T05:16:47;3.70;;;2.03;;
53401;SDS011;39295;45.534;20.034;2023-04-03T05:19:13;3.00;;;1.83;;
53401;SDS011;39295;45.534;20.034;2023-04-03T05:21:39;2.85;;;2.03;;
53401;SDS011;39295;45.534;20.034;2023-04-03T05:24:05;1.95;;;1.67;;
53401;SDS011;39295;45.534;20.034;2023-04-03T05:26:34;2.30;;;1.48;;
53401;SDS011;39295;45.534;20.034;2023-04-03T05:29:00;3.10;;;2.00;;
53401;SDS011;39295;45.534;20.034;2023-04-03T05:31:26;2.92;;;1.92;;
53401;SDS011;39295;45.534;20.034;2023-04-03T05:33:54;3.08;;;2.10;;
53401;SDS011;39295;45.534;20.034;2023-04-03T05:36:20;3.05;;;2.00;;
53401;SDS011;39295;45.534;20.034;2023-04-03T05:38:47;1.75;;;1.60;;
53401;SDS011;39295;45.534;20.034;2023-04-03T05:41:13;2.92;;;2.10;;
53401;SDS011;39295;45.534;20.034;2023-04-03T05:43:39;4.68;;;2.38;;
53401;SDS011;39295;45.534;20.034;2023-04-03T05:46:12;2.47;;;1.85;;
53401;SDS011;39295;45.534;20.034;2023-04-03T05:48:38;4.78;;;2.20;;
53401;SDS011;39295;45.534;20.034;2023-04-03T05:51:05;3.13;;;2.20;;
53401;SDS011;39295;45.534;20.034;2023-04-03T05:53:32;2.22;;;1.73;;
53401;SDS011;39295;45.534;20.034;2023-04-03T05:55:59;3.00;;;2.03;;
53401;SDS011;39295;45.534;20.034;2023-04-03T05:58:25;3.03;;;2.20;;
53401;SDS011;39295;45.534;20.034;2023-04-03T06:00:51;4.35;;;2.95;;
53401;SDS011;39295;45.534;20.034;2023-04-03T06:03:17;4.07;;;3.40;;
53401;SDS011;39295;45.534;20.034;2023-04-03T06:09:00;2.85;;;2.28;;
53401;SDS011;39295;45.534;20.034;2023-04-03T06:11:26;11.75;;;7.13;;
53401;SDS011;39295;45.534;20.034;2023-04-03T06:13:52;6.93;;;4.90;;
53401;SDS011;39295;45.534;20.034;2023-04-03T06:16:18;8.20;;;4.95;;
53401;SDS011;39295;45.534;20.034;2023-04-03T06:18:45;4.22;;;2.53;;
53401;SDS011;39295;45.534;20.034;2023-04-03T06:21:11;3.55;;;2.30;;
53401;SDS011;39295;45.534;20.034;2023-04-03T06:23:37;3.28;;;2.38;;
53401;SDS011;39295;45.534;20.034;2023-04-03T06:26:03;2.08;;;1.67;;
53401;SDS011;39295;45.534;20.034;2023-04-03T06:28:30;2.83;;;1.90;;
53401;SDS011;39295;45.534;20.034;2023-04-03T06:30:56;2.25;;;1.55;;
53401;SDS011;39295;45.534;20.034;2023-04-03T06:33:22;2.05;;;1.58;;
53401;SDS011;39295;45.534;20.034;2023-04-03T06:39:05;9.82;;;6.15;;
53401;SDS011;39295;45.534;20.034;2023-04-03T06:41:32;2.55;;;1.80;;
53401;SDS011;39295;45.534;20.034;2023-04-03T06:43:58;2.95;;;1.95;;
53401;SDS011;39295;45.534;20.034;2023-04-03T06:46:25;2.28;;;1.60;;
53401;SDS011;39295;45.534;20.034;2023-04-03T06:48:52;2.58;;;1.70;;
53401;SDS011;39295;45.534;20.034;2023-04-03T06:53:46;2.85;;;1.83;;
53401;SDS011;39295;45.534;20.034;2023-04-03T06:56:12;3.78;;;2.45;;
53401;SDS011;39295;45.534;20.034;2023-04-03T06:58:39;6.05;;;3.13;;
53401;SDS011;39295;45.534;20.034;2023-04-03T07:01:05;5.80;;;2.28;;
53401;SDS011;39295;45.534;20.034;2023-04-03T07:03:31;5.63;;;3.10;;
53401;SDS011;39295;45.534;20.034;2023-04-03T07:05:57;8.05;;;6.40;;
53401;SDS011;39295;45.534;20.034;2023-04-03T07:08:23;5.43;;;4.13;;
53401;SDS011;39295;45.534;20.034;2023-04-03T07:10:51;4.22;;;3.00;;
53401;SDS011;39295;45.534;20.034;2023-04-03T07:13:17;4.50;;;2.08;;
53401;SDS011;39295;45.534;20.034;2023-04-03T07:15:43;7.28;;;2.00;;
53401;SDS011;39295;45.534;20.034;2023-04-03T07:18:09;3.95;;;1.88;;
53401;SDS011;39295;45.534;20.034;2023-04-03T07:20:53;3.38;;;1.85;;
53401;SDS011;39295;45.534;20.034;2023-04-03T07:23:19;2.65;;;1.50;;
53401;SDS011;39295;45.534;20.034;2023-04-03T07:25:46;2.15;;;1.10;;
53401;SDS011;39295;45.534;20.034;2023-04-03T07:28:13;1.85;;;1.35;;
53401;SDS011;39295;45.534;20.034;2023-04-03T07:30:46;1.52;;;1.33;;
53401;SDS011;39295;45.534;20.034;2023-04-03T07:33:12;2.75;;;1.10;;
53401;SDS011;39295;45.534;20.034;2023-04-03T07:35:39;2.15;;;1.50;;
53401;SDS011;39295;45.534;20.034;2023-04-03T07:38:05;2.88;;;1.70;;
53401;SDS011;39295;45.534;20.034;2023-04-03T07:40:31;3.33;;;1.58;;
53401;SDS011;39295;45.534;20.034;2023-04-03T07:42:57;4.95;;;1.52;;
53401;SDS011;39295;45.534;20.034;2023-04-03T07:45:24;2.60;;;1.95;;
53401;SDS011;39295;45.534;20.034;2023-04-03T07:47:50;8.35;;;4.43;;
53401;SDS011;39295;45.534;20.034;2023-04-03T07:50:17;4.93;;;2.70;;
53401;SDS011;39295;45.534;20.034;2023-04-03T07:52:43;5.07;;;1.90;;
53401;SDS011;39295;45.534;20.034;2023-04-03T07:55:10;1.85;;;1.52;;
53401;SDS011;39295;45.534;20.034;2023-04-03T07:57:36;2.55;;;1.70;;
53401;SDS011;39295;45.534;20.034;2023-04-03T08:00:03;2.78;;;1.70;;
53401;SDS011;39295;45.534;20.034;2023-04-03T08:02:29;1.83;;;1.55;;
53401;SDS011;39295;45.534;20.034;2023-04-03T08:04:57;4.13;;;2.00;;
53401;SDS011;39295;45.534;20.034;2023-04-03T08:10:08;2.40;;;1.67;;
53401;SDS011;39295;45.534;20.034;2023-04-03T08:12:34;4.35;;;1.48;;
53401;SDS011;39295;45.534;20.034;2023-04-03T08:15:02;2.22;;;1.75;;
53401;SDS011;39295;45.534;20.034;2023-04-03T08:17:28;4.45;;;2.10;;
53401;SDS011;39295;45.534;20.034;2023-04-03T08:19:54;2.42;;;1.63;;
53401;SDS011;39295;45.534;20.034;2023-04-03T08:22:20;2.40;;;1.70;;
53401;SDS011;39295;45.534;20.034;2023-04-03T08:24:46;4.55;;;2.10;;
53401;SDS011;39295;45.534;20.034;2023-04-03T08:27:12;3.03;;;1.70;;
53401;SDS011;39295;45.534;20.034;2023-04-03T08:29:38;2.75;;;1.83;;
53401;SDS011;39295;45.534;20.034;2023-04-03T08:32:04;2.22;;;1.77;;
53401;SDS011;39295;45.534;20.034;2023-04-03T08:34:31;2.92;;;1.98;;
53401;SDS011;39295;45.534;20.034;2023-04-03T08:40:04;1.55;;;1.30;;
53401;SDS011;39295;45.534;20.034;2023-04-03T08:45:13;4.47;;;1.58;;
53401;SDS011;39295;45.534;20.034;2023-04-03T08:50:22;3.17;;;1.90;;
53401;SDS011;39295;45.534;20.034;2023-04-03T08:52:51;3.97;;;1.63;;
53401;SDS011;39295;45.534;20.034;2023-04-03T09:00:25;2.00;;;1.50;;
53401;SDS011;39295;45.534;20.034;2023-04-03T09:02:54;2.25;;;1.20;;
53401;SDS011;39295;45.534;20.034;2023-04-03T09:08:27;1.75;;;1.40;;
53401;SDS011;39295;45.534;20.034;2023-04-03T09:16:36;7.47;;;2.50;;
53401;SDS011;39295;45.534;20.034;2023-04-03T09:19:02;1.88;;;1.20;;
53401;SDS011;39295;45.534;20.034;2023-04-03T09:27:38;1.73;;;1.20;;
53401;SDS011;39295;45.534;20.034;2023-04-03T09:30:04;2.47;;;1.70;;
53401;SDS011;39295;45.534;20.034;2023-04-03T09:32:33;2.65;;;1.65;;
53401;SDS011;39295;45.534;20.034;2023-04-03T09:35:22;4.43;;;1.60;;
53401;SDS011;39295;45.534;20.034;2023-04-03T09:37:50;3.13;;;1.17;;
53401;SDS011;39295;45.534;20.034;2023-04-03T09:42:59;2.30;;;1.40;;
53401;SDS011;39295;45.534;20.034;2023-04-03T09:45:26;3.92;;;1.30;;
53401;SDS011;39295;45.534;20.034;2023-04-03T09:48:13;7.28;;;1.92;;
53401;SDS011;39295;45.534;20.034;2023-04-03T09:53:38;2.33;;;1.48;;
53401;SDS011;39295;45.534;20.034;2023-04-03T09:58:45;12.18;;;5.05;;
53401;SDS011;39295;45.534;20.034;2023-04-03T10:01:26;3.75;;;2.00;;
53401;SDS011;39295;45.534;20.034;2023-04-03T10:04:12;2.55;;;1.75;;
53401;SDS011;39295;45.534;20.034;2023-04-03T10:09:25;2.60;;;1.38;;
53401;SDS011;39295;45.534;20.034;2023-04-03T10:14:24;3.10;;;1.88;;
53401;SDS011;39295;45.534;20.034;2023-04-03T10:17:14;1.70;;;1.15;;
53401;SDS011;39295;45.534;20.034;2023-04-03T10:19:41;2.40;;;1.83;;
53401;SDS011;39295;45.534;20.034;2023-04-03T10:32:55;3.63;;;1.20;;
53401;SDS011;39295;45.534;20.034;2023-04-03T10:35:44;2.60;;;1.13;;
53401;SDS011;39295;45.534;20.034;2023-04-03T10:48:37;2.63;;;1.58;;
53401;SDS011;39295;45.534;20.034;2023-04-03T10:53:47;7.10;;;3.78;;
53401;SDS011;39295;45.534;20.034;2023-04-03T10:58:44;6.55;;;3.50;;
53401;SDS011;39295;45.534;20.034;2023-04-03T11:01:21;5.50;;;2.45;;
53401;SDS011;39295;45.534;20.034;2023-04-03T11:03:49;3.40;;;1.88;;
53401;SDS011;39295;45.534;20.034;2023-04-03T11:06:17;6.32;;;2.30;;
53401;SDS011;39295;45.534;20.034;2023-04-03T11:09:02;2.97;;;1.90;;
53401;SDS011;39295;45.534;20.034;2023-04-03T11:11:33;4.53;;;1.95;;
53401;SDS011;39295;45.534;20.034;2023-04-03T11:16:46;3.03;;;1.95;;
53401;SDS011;39295;45.534;20.034;2023-04-03T11:30:27;4.20;;;1.60;;
53401;SDS011;39295;45.534;20.034;2023-04-03T11:32:58;2.83;;;1.60;;
53401;SDS011;39295;45.534;20.034;2023-04-03T11:35:27;2.42;;;1.65;;
53401;SDS011;39295;45.534;20.034;2023-04-03T11:37:53;2.00;;;1.38;;
53401;SDS011;39295;45.534;20.034;2023-04-03T11:42:49;3.08;;;1.50;;
53401;SDS011;39295;45.534;20.034;2023-04-03T11:47:56;1.90;;;1.45;;
53401;SDS011;39295;45.534;20.034;2023-04-03T11:55:56;2.53;;;1.30;;
53401;SDS011;39295;45.534;20.034;2023-04-03T11:58:23;1.85;;;1.40;;
53401;SDS011;39295;45.534;20.034;2023-04-03T12:00:51;2.58;;;1.50;;
53401;SDS011;39295;45.534;20.034;2023-04-03T12:05:53;2.15;;;1.27;;
53401;SDS011;39295;45.534;20.034;2023-04-03T12:08:27;2.60;;;1.55;;
53401;SDS011;39295;45.534;20.034;2023-04-03T12:16:29;2.90;;;1.58;;
53401;SDS011;39295;45.534;20.034;2023-04-03T12:19:00;2.47;;;1.42;;
53401;SDS011;39295;45.534;20.034;2023-04-03T12:24:52;2.85;;;1.50;;
53401;SDS011;39295;45.534;20.034;2023-04-03T12:30:05;1.80;;;1.25;;
53401;SDS011;39295;45.534;20.034;2023-04-03T12:45:23;1.92;;;1.10;;
53401;SDS011;39295;45.534;20.034;2023-04-03T12:47:51;2.38;;;1.35;;
53401;SDS011;39295;45.534;20.034;2023-04-03T12:52:45;3.88;;;1.50;;
53401;SDS011;39295;45.534;20.034;2023-04-03T12:55:19;4.00;;;1.77;;
53401;SDS011;39295;45.534;20.034;2023-04-03T12:57:46;2.85;;;1.73;;
53401;SDS011;39295;45.534;20.034;2023-04-03T13:00:32;3.22;;;1.50;;
53401;SDS011;39295;45.534;20.034;2023-04-03T13:02:58;7.47;;;1.70;;
53401;SDS011;39295;45.534;20.034;2023-04-03T13:05:25;4.40;;;1.55;;
53401;SDS011;39295;45.534;20.034;2023-04-03T13:08:02;7.85;;;1.90;;
53401;SDS011;39295;45.534;20.034;2023-04-03T13:10:40;2.72;;;1.35;;
53401;SDS011;39295;45.534;20.034;2023-04-03T13:13:09;1.88;;;1.40;;
53401;SDS011;39295;45.534;20.034;2023-04-03T13:15:43;3.88;;;1.58;;
53401;SDS011;39295;45.534;20.034;2023-04-03T13:18:29;2.08;;;1.40;;
53401;SDS011;39295;45.534;20.034;2023-04-03T13:21:18;3.00;;;1.52;;
53401;SDS011;39295;45.534;20.034;2023-04-03T13:23:44;3.72;;;1.63;;
53401;SDS011;39295;45.534;20.034;2023-04-03T13:26:11;2.55;;;1.70;;
53401;SDS011;39295;45.534;20.034;2023-04-03T13:28:38;6.38;;;1.60;;
53401;SDS011;39295;45.534;20.034;2023-04-03T13:31:17;3.70;;;1.40;;
53401;SDS011;39295;45.534;20.034;2023-04-03T13:36:33;2.00;;;1.40;;
53401;SDS011;39295;45.534;20.034;2023-04-03T13:41:30;2.35;;;1.52;;
53401;SDS011;39295;45.534;20.034;2023-04-03T13:43:56;2.13;;;1.20;;
53401;SDS011;39295;45.534;20.034;2023-04-03T13:46:26;4.10;;;1.50;;
53401;SDS011;39295;45.534;20.034;2023-04-03T13:48:54;1.50;;;1.40;;
53401;SDS011;39295;45.534;20.034;2023-04-03T13:51:27;3.00;;;2.00;;
53401;SDS011;39295;45.534;20.034;2023-04-03T13:58:59;7.63;;;4.20;;
53401;SDS011;39295;45.534;20.034;2023-04-03T14:01:32;3.92;;;2.10;;
53401;SDS011;39295;45.534;20.034;2023-04-03T14:04:00;2.63;;;1.70;;
53401;SDS011;39295;45.534;20.034;2023-04-03T14:06:28;4.43;;;1.63;;
53401;SDS011;39295;45.534;20.034;2023-04-03T14:08:55;2.88;;;1.30;;
53401;SDS011;39295;45.534;20.034;2023-04-03T14:11:22;2.03;;;1.73;;
53401;SDS011;39295;45.534;20.034;2023-04-03T14:13:50;5.75;;;1.80;;
53401;SDS011;39295;45.534;20.034;2023-04-03T14:16:20;3.10;;;2.00;;
53401;SDS011;39295;45.534;20.034;2023-04-03T14:18:47;2.30;;;1.40;;
53401;SDS011;39295;45.534;20.034;2023-04-03T14:21:14;4.43;;;2.20;;
53401;SDS011;39295;45.534;20.034;2023-04-03T14:23:41;4.85;;;2.20;;
53401;SDS011;39295;45.534;20.034;2023-04-03T14:26:12;2.60;;;1.45;;
53401;SDS011;39295;45.534;20.034;2023-04-03T14:28:44;2.13;;;1.70;;
53401;SDS011;39295;45.534;20.034;2023-04-03T14:31:13;4.30;;;2.50;;
53401;SDS011;39295;45.534;20.034;2023-04-03T14:33:39;5.00;;;1.90;;
53401;SDS011;39295;45.534;20.034;2023-04-03T14:41:24;3.78;;;1.60;;
53401;SDS011;39295;45.534;20.034;2023-04-03T14:43:51;2.97;;;2.03;;
53401;SDS011;39295;45.534;20.034;2023-04-03T14:46:19;3.88;;;2.08;;
53401;SDS011;39295;45.534;20.034;2023-04-03T14:48:48;2.70;;;1.40;;
53401;SDS011;39295;45.534;20.034;2023-04-03T14:51:14;3.53;;;1.45;;
53401;SDS011;39295;45.534;20.034;2023-04-03T14:53:41;2.80;;;1.50;;
53401;SDS011;39295;45.534;20.034;2023-04-03T14:56:26;3.42;;;1.42;;
53401;SDS011;39295;45.534;20.034;2023-04-03T14:58:59;5.97;;;1.50;;
53401;SDS011;39295;45.534;20.034;2023-04-03T15:01:27;4.43;;;1.98;;
53401;SDS011;39295;45.534;20.034;2023-04-03T15:03:53;2.78;;;1.17;;
53401;SDS011;39295;45.534;20.034;2023-04-03T15:06:19;7.38;;;4.18;;
53401;SDS011;39295;45.534;20.034;2023-04-03T15:08:47;3.42;;;1.98;;
53401;SDS011;39295;45.534;20.034;2023-04-03T15:11:13;3.00;;;1.70;;
53401;SDS011;39295;45.534;20.034;2023-04-03T15:13:40;5.00;;;1.90;;
53401;SDS011;39295;45.534;20.034;2023-04-03T15:16:10;7.93;;;2.38;;
53401;SDS011;39295;45.534;20.034;2023-04-03T15:18:38;4.38;;;1.25;;
53401;SDS011;39295;45.534;20.034;2023-04-03T15:21:05;5.00;;;1.60;;
53401;SDS011;39295;45.534;20.034;2023-04-03T15:26:48;2.17;;;1.77;;
53401;SDS011;39295;45.534;20.034;2023-04-03T15:29:14;4.47;;;1.50;;
53401;SDS011;39295;45.534;20.034;2023-04-03T15:31:40;2.45;;;1.30;;
53401;SDS011;39295;45.534;20.034;2023-04-03T15:34:06;4.28;;;1.15;;
53401;SDS011;39295;45.534;20.034;2023-04-03T15:36:32;6.72;;;1.52;;
53401;SDS011;39295;45.534;20.034;2023-04-03T15:38:58;4.55;;;2.38;;
53401;SDS011;39295;45.534;20.034;2023-04-03T15:41:24;4.95;;;3.03;;
53401;SDS011;39295;45.534;20.034;2023-04-03T15:43:51;12.18;;;2.22;;
53401;SDS011;39295;45.534;20.034;2023-04-03T15:46:17;4.05;;;1.83;;
53401;SDS011;39295;45.534;20.034;2023-04-03T15:48:43;2.95;;;1.63;;
53401;SDS011;39295;45.534;20.034;2023-04-03T15:51:09;3.00;;;1.15;;
53401;SDS011;39295;45.534;20.034;2023-04-03T15:53:35;3.05;;;1.40;;
53401;SDS011;39295;45.534;20.034;2023-04-03T15:56:02;1.77;;;1.15;;
53401;SDS011;39295;45.534;20.034;2023-04-03T15:58:29;1.75;;;1.30;;
53401;SDS011;39295;45.534;20.034;2023-04-03T16:00:55;1.95;;;1.50;;
53401;SDS011;39295;45.534;20.034;2023-04-03T16:03:22;4.18;;;1.55;;
53401;SDS011;39295;45.534;20.034;2023-04-03T16:05:49;1.77;;;1.45;;
53401;SDS011;39295;45.534;20.034;2023-04-03T16:11:18;5.03;;;2.72;;
53401;SDS011;39295;45.534;20.034;2023-04-03T16:13:44;4.10;;;1.90;;
53401;SDS011;39295;45.534;20.034;2023-04-03T16:16:11;2.63;;;1.65;;
53401;SDS011;39295;45.534;20.034;2023-04-03T16:18:37;3.10;;;1.90;;
53401;SDS011;39295;45.534;20.034;2023-04-03T16:21:03;3.75;;;1.70;;
53401;SDS011;39295;45.534;20.034;2023-04-03T16:23:29;5.22;;;1.63;;
53401;SDS011;39295;45.534;20.034;2023-04-03T16:25:55;2.50;;;1.38;;
53401;SDS011;39295;45.534;20.034;2023-04-03T16:28:22;4.82;;;1.88;;
53401;SDS011;39295;45.534;20.034;2023-04-03T16:30:48;5.70;;;1.23;;
53401;SDS011;39295;45.534;20.034;2023-04-03T16:33:14;2.80;;;1.40;;
53401;SDS011;39295;45.534;20.034;2023-04-03T16:35:40;3.60;;;1.80;;
53401;SDS011;39295;45.534;20.034;2023-04-03T16:38:07;2.53;;;1.60;;
53401;SDS011;39295;45.534;20.034;2023-04-03T16:40:33;2.50;;;1.70;;
53401;SDS011;39295;45.534;20.034;2023-04-03T16:43:00;2.35;;;1.90;;
53401;SDS011;39295;45.534;20.034;2023-04-03T16:45:26;2.90;;;2.25;;
53401;SDS011;39295;45.534;20.034;2023-04-03T16:47:52;5.63;;;3.75;;
53401;SDS011;39295;45.534;20.034;2023-04-03T16:50:18;4.47;;;2.85;;
53401;SDS011;39295;45.534;20.034;2023-04-03T16:55:34;3.72;;;2.40;;
53401;SDS011;39295;45.534;20.034;2023-04-03T16:58:00;3.13;;;1.23;;
53401;SDS011;39295;45.534;20.034;2023-04-03T17:00:29;8.02;;;1.83;;
53401;SDS011;39295;45.534;20.034;2023-04-03T17:02:55;5.18;;;1.85;;
53401;SDS011;39295;45.534;20.034;2023-04-03T17:05:21;5.43;;;2.38;;
53401;SDS011;39295;45.534;20.034;2023-04-03T17:08:07;4.05;;;2.53;;
53401;SDS011;39295;45.534;20.034;2023-04-03T17:10:33;3.38;;;1.67;;
53401;SDS011;39295;45.534;20.034;2023-04-03T17:13:00;4.72;;;1.50;;
53401;SDS011;39295;45.534;20.034;2023-04-03T17:15:26;2.90;;;1.33;;
53401;SDS011;39295;45.534;20.034;2023-04-03T17:17:52;5.30;;;1.60;;
53401;SDS011;39295;45.534;20.034;2023-04-03T17:20:18;6.30;;;1.40;;
53401;SDS011;39295;45.534;20.034;2023-04-03T17:31:50;16.60;;;3.65;;
53401;SDS011;39295;45.534;20.034;2023-04-03T17:34:16;4.40;;;1.90;;
53401;SDS011;39295;45.534;20.034;2023-04-03T17:36:42;4.03;;;2.40;;
53401;SDS011;39295;45.534;20.034;2023-04-03T17:39:08;5.50;;;2.35;;
53401;SDS011;39295;45.534;20.034;2023-04-03T17:41:35;3.85;;;1.90;;
53401;SDS011;39295;45.534;20.034;2023-04-03T17:44:01;4.25;;;1.83;;
53401;SDS011;39295;45.534;20.034;2023-04-03T17:46:27;2.83;;;2.00;;
53401;SDS011;39295;45.534;20.034;2023-04-03T17:48:54;3.35;;;2.10;;
53401;SDS011;39295;45.534;20.034;2023-04-03T17:51:23;9.68;;;2.15;;
53401;SDS011;39295;45.534;20.034;2023-04-03T17:53:49;8.48;;;2.53;;
53401;SDS011;39295;45.534;20.034;2023-04-03T17:56:17;9.48;;;1.98;;
53401;SDS011;39295;45.534;20.034;2023-04-03T17:58:43;12.82;;;2.60;;
53401;SDS011;39295;45.534;20.034;2023-04-03T18:01:17;9.55;;;2.08;;
53401;SDS011;39295;45.534;20.034;2023-04-03T18:03:44;14.52;;;2.60;;
53401;SDS011;39295;45.534;20.034;2023-04-03T18:06:11;12.60;;;2.70;;
53401;SDS011;39295;45.534;20.034;2023-04-03T18:08:43;12.98;;;3.90;;
53401;SDS011;39295;45.534;20.034;2023-04-03T18:11:13;21.25;;;3.22;;
53401;SDS011;39295;45.534;20.034;2023-04-03T18:13:39;10.23;;;3.08;;